^^
Grace C. Lehan Memorial Weather Station Historical Data
Daily Summary for January 26, 2021 Units:  English    Metric   Both
Daily Weekly Monthly Yearly
  High: Low: Average:
Temperature: 85.6 °F 66.8 °F 76 °F
Dew Point: 73.7 °F 63.8 °F 69.8 °F
Humidity: 94% 65.4% 82%
Wind Speed: 3.4mph 0mph 0.7mph
Wind Gust: 13mph - -
Wind- - SSW
Pressure: 30.24 in 30.12 in -
Precipitation: 0.00 in    
 
 
Tabular Data for January 26, 2021
Time Temperature Dew Point Pressure Wind Wind Speed Wind Gust Humidity Rainfall Rate (Hourly) solar
00:09 66.8 °F 63.8 °F 30.23 in South 0.1 mph 1 mph 90% 0.00 in 0 W/m2
00:14 66.9 °F 63.9 °F 30.23 in Calm   1 mph 90% 0.00 in 0 W/m2
00:19 66.9 °F 63.9 °F 30.22 in South 0.1 mph 1 mph 90% 0.00 in 0 W/m2
00:24 66.9 °F 63.9 °F 30.22 in South 0.3 mph 5 mph 90% 0.00 in 0 W/m2
00:29 67 °F 64 °F 30.22 in Calm   5 mph 90% 0.00 in 0 W/m2
00:34 67 °F 64 °F 30.22 in South 0.1 mph 5 mph 90% 0.00 in 0 W/m2
00:39 67 °F 63.9 °F 30.22 in Calm   3 mph 90% 0.00 in 0 W/m2
00:44 67 °F 64 °F 30.22 in Calm   3 mph 90% 0.00 in 0 W/m2
00:49 67 °F 63.9 °F 30.22 in Calm   3 mph 90% 0.00 in 0 W/m2
00:54 67 °F 63.9 °F 30.22 in Calm   3 mph 90% 0.00 in 0 W/m2
00:59 66.9 °F 63.9 °F 30.22 in Calm   3 mph 90% 0.00 in 0 W/m2
01:04 67 °F 63.9 °F 30.22 in SSW 0.2 mph 5 mph 90% 0.00 in 0 W/m2
01:09 67 °F 63.9 °F 30.22 in Calm   5 mph 90% 0.00 in 0 W/m2
01:14 67 °F 63.9 °F 30.22 in Calm   5 mph 90% 0.00 in 0 W/m2
01:19 67 °F 64 °F 30.22 in Calm   5 mph 90% 0.00 in 0 W/m2
01:24 67 °F 64 °F 30.22 in Calm   5 mph 90% 0.00 in 0 W/m2
01:29 67 °F 64 °F 30.22 in Calm   5 mph 90% 0.00 in 0 W/m2
01:34 67.1 °F 64.1 °F 30.22 in Calm   5 mph 90% 0.00 in 0 W/m2
01:39 67.1 °F 64.1 °F 30.22 in Calm     90% 0.00 in 0 W/m2
01:44 67.1 °F 64.1 °F 30.22 in Calm     90% 0.00 in 0 W/m2
01:49 67.1 °F 64.1 °F 30.22 in Calm   2 mph 90% 0.00 in 0 W/m2
01:54 67.2 °F 64.1 °F 30.21 in Calm   2 mph 90% 0.00 in 0 W/m2
01:59 67.2 °F 64.2 °F 30.21 in Calm   2 mph 90% 0.00 in 0 W/m2
02:04 67.2 °F 64.2 °F 30.21 in Calm   2 mph 90% 0.00 in 0 W/m2
02:09 67.2 °F 64.2 °F 30.21 in Calm     90% 0.00 in 0 W/m2
02:14 67.2 °F 64.2 °F 30.21 in Calm     90% 0.00 in 0 W/m2
02:15 67.2 °F 64.2 °F 30.21 in Calm     90% 0.00 in 0 W/m2
02:30 67.3 °F 64.3 °F 30.21 in Calm     90% 0.00 in 0 W/m2
03:00 67.5 °F 64.5 °F 30.21 in Calm     90% 0.00 in 0 W/m2
03:30 67.9 °F 64.9 °F 30.20 in Calm   1 mph 90% 0.00 in 0 W/m2
04:04 67.9 °F 64.9 °F 30.20 in Calm     90% 0.00 in 0 W/m2
04:09 67.9 °F 64.9 °F 30.21 in Calm     90% 0.00 in 0 W/m2
04:14 67.9 °F 64.9 °F 30.21 in Calm     90% 0.00 in 0 W/m2
04:19 67.9 °F 65 °F 30.21 in Calm     90.4% 0.00 in 0 W/m2
04:24 67.9 °F 65.2 °F 30.21 in Calm     91% 0.00 in 0 W/m2
04:29 67.9 °F 65.2 °F 30.21 in Calm     91% 0.00 in 0 W/m2
04:34 67.9 °F 65.2 °F 30.21 in Calm     91% 0.00 in 0 W/m2
04:39 67.9 °F 65.2 °F 30.21 in Calm     91% 0.00 in 0 W/m2
04:44 68 °F 65.2 °F 30.21 in Calm     91% 0.00 in 0 W/m2
04:49 68 °F 65.3 °F 30.21 in Calm     91% 0.00 in 0 W/m2
04:54 68 °F 65.3 °F 30.22 in Calm     91% 0.00 in 0 W/m2
04:59 68 °F 65.3 °F 30.22 in Calm     91% 0.00 in 0 W/m2
05:04 68 °F 65.3 °F 30.22 in Calm     91% 0.00 in 0 W/m2
05:09 68.1 °F 65.4 °F 30.22 in Calm     91% 0.00 in 0 W/m2
05:14 68.1 °F 65.4 °F 30.22 in Calm     91% 0.00 in 0 W/m2
05:19 68.1 °F 65.4 °F 30.22 in Calm     91% 0.00 in 0 W/m2
05:24 68.2 °F 65.5 °F 30.22 in Calm     91% 0.00 in 0 W/m2
05:29 68.2 °F 65.5 °F 30.22 in Calm     91% 0.00 in 0 W/m2
05:34 68.3 °F 65.6 °F 30.22 in Calm     91% 0.00 in 0 W/m2
05:39 68.4 °F 65.7 °F 30.22 in Calm     91% 0.00 in 0 W/m2
05:44 68.4 °F 66 °F 30.22 in Calm     91.9% 0.00 in 0 W/m2
05:49 68.5 °F 66.1 °F 30.22 in Calm     92% 0.00 in 0 W/m2
05:54 68.5 °F 66.1 °F 30.22 in Calm     92% 0.00 in 5 W/m2
05:59 68.5 °F 66.1 °F 30.22 in Calm     92% 0.00 in 5 W/m2
06:04 68.5 °F 66.1 °F 30.22 in Calm     92% 0.00 in 5 W/m2
06:09 68.6 °F 66.2 °F 30.22 in Calm     92% 0.00 in 7 W/m2
06:14 68.6 °F 66.2 °F 30.22 in Calm     92% 0.00 in 7 W/m2
06:19 68.6 °F 66.2 °F 30.23 in Calm     92% 0.00 in 16 W/m2
06:24 68.7 °F 66.3 °F 30.23 in Calm     92% 0.00 in 16 W/m2
06:29 68.7 °F 66.3 °F 30.23 in Calm     92% 0.00 in 32 W/m2
06:34 68.8 °F 66.3 °F 30.23 in Calm     92% 0.00 in 32 W/m2
06:39 68.8 °F 66.5 °F 30.24 in Calm     92.4% 0.00 in 30 W/m2
06:44 68.8 °F 66.7 °F 30.24 in Calm     93% 0.00 in 37 W/m2
06:49 68.9 °F 66.8 °F 30.23 in Calm     93% 0.00 in 47 W/m2
06:54 68.9 °F 66.8 °F 30.23 in Calm     93% 0.00 in 47 W/m2
06:59 69 °F 66.9 °F 30.23 in Calm     93% 0.00 in 47 W/m2
07:04 69 °F 66.9 °F 30.23 in Calm     93% 0.00 in 46 W/m2
07:09 69.1 °F 67 °F 30.23 in Calm     93% 0.00 in 69 W/m2
07:14 69.2 °F 67.1 °F 30.23 in Calm     93% 0.00 in 86 W/m2
07:19 69.3 °F 67.3 °F 30.23 in Calm   1 mph 93.4% 0.00 in 86 W/m2
07:24 69.4 °F 67.6 °F 30.23 in Calm   1 mph 94% 0.00 in 76 W/m2
07:29 69.5 °F 67.7 °F 30.23 in Calm   1 mph 94% 0.00 in 69 W/m2
07:34 69.6 °F 67.5 °F 30.23 in Calm   1 mph 93.1% 0.00 in 69 W/m2
07:39 69.7 °F 67.6 °F 30.23 in Calm     93% 0.00 in 62 W/m2
07:44 69.8 °F 67.7 °F 30.23 in Calm     93% 0.00 in 72 W/m2
07:49 69.9 °F 67.8 °F 30.23 in Calm     93% 0.00 in 79 W/m2
07:54 70.1 °F 68 °F 30.23 in Calm     93% 0.00 in 69 W/m2
07:59 70.3 °F 68.1 °F 30.23 in Calm     93% 0.00 in 72 W/m2
08:09 70.6 °F 68.2 °F 30.23 in Calm     92% 0.00 in 88 W/m2
08:14 70.8 °F 68.3 °F 30.23 in Calm     92% 0.00 in 127 W/m2
08:19 71 °F 68.6 °F 30.23 in Calm   1 mph 92% 0.00 in 128 W/m2
08:24 71.3 °F 68.8 °F 30.22 in WSW 0.1 mph 4 mph 91.8% 0.00 in 142 W/m2
08:29 71.6 °F 68.8 °F 30.23 in Calm   4 mph 91% 0.00 in 169 W/m2
08:34 71.8 °F 69 °F 30.23 in Calm   4 mph 90.8% 0.00 in 146 W/m2
08:39 72.2 °F 69.4 °F 30.22 in WSW 0.1 mph 3 mph 90.8% 0.00 in 178 W/m2
08:44 72.5 °F 69.4 °F 30.22 in Calm   3 mph 90% 0.00 in 207 W/m2
08:49 72.9 °F 69.7 °F 30.22 in WSW 0.4 mph 5 mph 89.7% 0.00 in 207 W/m2
08:54 73.3 °F 69.6 °F 30.22 in WSW 0.2 mph 5 mph 88.4% 0.00 in 288 W/m2
08:59 73.6 °F 69.7 °F 30.22 in SW 0.8 mph 6 mph 87.6% 0.00 in 214 W/m2
09:04 73.9 °F 69.8 °F 30.22 in SW 1.3 mph 7 mph 86.8% 0.00 in 276 W/m2
09:09 74.3 °F 69.7 °F 30.22 in WSW 0.8 mph 7 mph 85.8% 0.00 in 271 W/m2
09:14 74.6 °F 69.8 °F 30.22 in WSW 1.8 mph 13 mph 85% 0.00 in 234 W/m2
09:19 74.9 °F 69.9 °F 30.22 in SSW 0.8 mph 13 mph 84.5% 0.00 in 214 W/m2
09:24 75.1 °F 69.9 °F 30.22 in SSW 0.1 mph 13 mph 84% 0.00 in 225 W/m2
09:29 75.4 °F 70.3 °F 30.21 in SW 0.7 mph 13 mph 84.3% 0.00 in 295 W/m2
09:34 75.6 °F 70.2 °F 30.21 in SW 0.8 mph 13 mph 83.3% 0.00 in 241 W/m2
09:39 76 °F 70.5 °F 30.21 in SW 1.2 mph 7 mph 83.3% 0.00 in 292 W/m2
09:44 76.2 °F 70.7 °F 30.21 in SSW 0.1 mph 7 mph 82.9% 0.00 in 322 W/m2
09:49 76.6 °F 70.8 °F 30.21 in WSW 1.1 mph 7 mph 82.3% 0.00 in 297 W/m2
09:54 76.9 °F 70.8 °F 30.21 in SW 0.7 mph 7 mph 81.4% 0.00 in 323 W/m2
09:59 77.3 °F 70.9 °F 30.21 in SW 0.8 mph 7 mph 80.8% 0.00 in 786 W/m2
10:04 78 °F 71.5 °F 30.21 in Calm   7 mph 80.5% 0.00 in 452 W/m2
10:09 78.5 °F 71.6 °F 30.21 in WSW 0.1 mph 3 mph 79.2% 0.00 in 858 W/m2
10:14 79.3 °F 72.2 °F 30.21 in SW 0.5 mph 6 mph 79% 0.00 in 858 W/m2
10:19 80 °F 72.3 °F 30.21 in WSW 1.2 mph 6 mph 77.3% 0.00 in 369 W/m2
10:24 80.5 °F 71.8 °F 30.21 in SW 0.6 mph 7 mph 75% 0.00 in 381 W/m2
10:29 80.6 °F 72 °F 30.21 in WSW 0.6 mph 7 mph 75.2% 0.00 in 232 W/m2
10:34 80.6 °F 71.7 °F 30.21 in WSW 0.3 mph 7 mph 74.3% 0.00 in 258 W/m2
10:39 80.5 °F 71.9 °F 30.21 in WSW 0.2 mph 5 mph 74.9% 0.00 in 258 W/m2
10:44 80.5 °F 71.7 °F 30.21 in WSW 0.2 mph 5 mph 74.7% 0.00 in 397 W/m2
10:49 80.6 °F 71.7 °F 30.21 in WSW 0.8 mph 5 mph 74.5% 0.00 in 192 W/m2
10:54 80.6 °F 71.4 °F 30.21 in WSW 0.2 mph 5 mph 73.6% 0.00 in 285 W/m2
10:59 80.5 °F 71.2 °F 30.21 in WSW 0.1 mph 5 mph 73.4% 0.00 in 207 W/m2
11:04 80.5 °F 71.5 °F 30.21 in WSW 0.2 mph 5 mph 74.2% 0.00 in 213 W/m2
11:09 80.5 °F 71.6 °F 30.21 in Calm   4 mph 74.3% 0.00 in 327 W/m2
11:14 80.5 °F 71.7 °F 30.21 in WSW 0.3 mph 5 mph 74.7% 0.00 in 327 W/m2
11:19 80.5 °F 71.8 °F 30.21 in Calm   5 mph 74.8% 0.00 in 271 W/m2
11:24 80.5 °F 72.1 °F 30.21 in Calm   5 mph 75.7% 0.00 in 207 W/m2
11:29 80.5 °F 72.1 °F 30.21 in SW 0.7 mph 6 mph 75.7% 0.00 in 274 W/m2
11:34 80.6 °F 72.2 °F 30.21 in SSW 1.3 mph 12 mph 75.7% 0.00 in 817 W/m2
11:39 80.7 °F 72 °F 30.21 in SSE 0.9 mph 12 mph 75% 0.00 in 784 W/m2
11:44 80.8 °F 72.2 °F 30.21 in SSW 1.2 mph 12 mph 75.1% 0.00 in 380 W/m2
11:49 81 °F 72.2 °F 30.21 in South 0.6 mph 12 mph 74.9% 0.00 in 380 W/m2
11:54 81.2 °F 72.4 °F 30.20 in South 0.6 mph 12 mph 74.7% 0.00 in 325 W/m2
11:59 81.5 °F 72.8 °F 30.20 in SW 1.3 mph 12 mph 74.8% 0.00 in 947 W/m2
12:00 81.8 °F 72.7 °F 30.20 in Calm   12 mph 74% 0.00 in 693 W/m2
12:09 82.5 °F 72.3 °F 30.20 in SSW 0.7 mph 7 mph 71.4% 0.00 in 679 W/m2
12:14 82.7 °F 72.7 °F 30.20 in SW 1.8 mph 9 mph 71.7% 0.00 in 947 W/m2
12:19 83.3 °F 73.2 °F 30.20 in SW 2.2 mph 9 mph 71.7% 0.00 in 947 W/m2
12:24 84 °F 73 °F 30.19 in SW 2 mph 11 mph 69.8% 0.00 in 942 W/m2
12:29 84.4 °F 73.4 °F 30.19 in SSW 1.5 mph 11 mph 69.5% 0.00 in 969 W/m2
12:34 84.7 °F 73.2 °F 30.19 in SSW 1.4 mph 11 mph 68.5% 0.00 in 506 W/m2
12:39 84.7 °F 73 °F 30.19 in SW 2.3 mph 9 mph 68.2% 0.00 in 772 W/m2
12:44 84.7 °F 72.8 °F 30.19 in SW 2.8 mph 10 mph 67.7% 0.00 in 824 W/m2
12:49 84.8 °F 72.4 °F 30.19 in SSW 2.2 mph 13 mph 66.4% 0.00 in 849 W/m2
12:54 84.7 °F 72.3 °F 30.19 in SSW 0.6 mph 13 mph 66.6% 0.00 in 918 W/m2
12:59 84.6 °F 72.7 °F 30.18 in SSW 0.9 mph 13 mph 67.7% 0.00 in 918 W/m2
13:04 84.4 °F 72.4 °F 30.18 in SSW 1.2 mph 13 mph 67.4% 0.00 in 740 W/m2
13:09 84.2 °F 72.6 °F 30.18 in SW 0.8 mph 5 mph 68.2% 0.00 in 374 W/m2
13:14 84.1 °F 72.6 °F 30.17 in SSW 2.2 mph 7 mph 68.5% 0.00 in 374 W/m2
13:19 84.3 °F 72.9 °F 30.17 in South 1.5 mph 7 mph 68.8% 0.00 in 995 W/m2
13:24 84.5 °F 72.8 °F 30.17 in SSW 1.4 mph 7 mph 68.2% 0.00 in 292 W/m2
13:29 84.3 °F 72.8 °F 30.17 in SSW 0.9 mph 7 mph 68.4% 0.00 in 983 W/m2
13:34 84.5 °F 73.7 °F 30.17 in South 1.1 mph 7 mph 70.1% 0.00 in 979 W/m2
13:39 84.9 °F 73.7 °F 30.17 in SSW 2.2 mph 13 mph 69.3% 0.00 in 930 W/m2
13:44 85.3 °F 73.3 °F 30.17 in SW 2.3 mph 13 mph 67.6% 0.00 in 962 W/m2
13:49 85.6 °F 73.6 °F 30.17 in SSW 1.9 mph 13 mph 67.5% 0.00 in 882 W/m2
13:54 85.6 °F 72.8 °F 30.16 in SSW 3.2 mph 13 mph 65.6% 0.00 in 926 W/m2
13:59 85.3 °F 72.4 °F 30.16 in SSW 2 mph 13 mph 65.4% 0.00 in 733 W/m2
14:04 84.9 °F 72.2 °F 30.16 in SSW 0.9 mph 13 mph 65.9% 0.00 in 441 W/m2
14:09 84.5 °F 72.6 °F 30.16 in SSW 0.7 mph 6 mph 67.4% 0.00 in 343 W/m2
14:14 84.2 °F 72.5 °F 30.16 in SSW 1 mph 6 mph 67.8% 0.00 in 977 W/m2
14:19 84.1 °F 72.6 °F 30.16 in SSW 1.7 mph 7 mph 68.3% 0.00 in 977 W/m2
14:24 84.1 °F 72.4 °F 30.16 in SW 1 mph 7 mph 68% 0.00 in 431 W/m2
14:29 84.3 °F 73.1 °F 30.16 in SW 0.8 mph 7 mph 69.3% 0.00 in 373 W/m2
14:34 84.6 °F 73 °F 30.16 in SSW 1.6 mph 7 mph 68.5% 0.00 in 373 W/m2
14:39 84.4 °F 72.5 °F 30.15 in SSW 2.4 mph 6 mph 67.6% 0.00 in 323 W/m2
14:44 84.1 °F 72.4 °F 30.15 in South 0.8 mph 6 mph 68.1% 0.00 in 380 W/m2
14:49 83.9 °F 72.3 °F 30.15 in SSW 2.1 mph 6 mph 68.1% 0.00 in 747 W/m2
14:54 83.8 °F 72.2 °F 30.15 in SSW 1.8 mph 6 mph 68% 0.00 in 301 W/m2
14:59 83.7 °F 72.5 °F 30.15 in South 2.1 mph 7 mph 69.1% 0.00 in 294 W/m2
15:04 83.5 °F 72.4 °F 30.15 in SW 2 mph 7 mph 69.5% 0.00 in 290 W/m2
15:09 83.3 °F 72.2 °F 30.15 in SSW 1.7 mph 8 mph 69.5% 0.00 in 290 W/m2
15:14 83.1 °F 72.3 °F 30.15 in SW 2.6 mph 11 mph 70% 0.00 in 265 W/m2
15:19 82.9 °F 72.2 °F 30.15 in SSW 1.8 mph 11 mph 70% 0.00 in 179 W/m2
15:24 82.7 °F 72.1 °F 30.15 in SW 2.4 mph 11 mph 70.5% 0.00 in 160 W/m2
15:29 82.3 °F 72 °F 30.15 in SSW 1.4 mph 11 mph 71% 0.00 in 188 W/m2
15:34 82.1 °F 72 °F 30.15 in SSW 1.9 mph 11 mph 71.5% 0.00 in 167 W/m2
15:39 81.9 °F 72 °F 30.15 in SSW 1.6 mph 6 mph 72% 0.00 in 176 W/m2
15:44 81.7 °F 72.2 °F 30.15 in South 1.8 mph 7 mph 72.9% 0.00 in 118 W/m2
15:49 81.6 °F 72.1 °F 30.15 in South 0.9 mph 7 mph 73% 0.00 in 167 W/m2
15:54 81.4 °F 72.2 °F 30.15 in South 1.2 mph 7 mph 73.7% 0.00 in 179 W/m2
15:59 81.4 °F 72.5 °F 30.15 in SSW 0.9 mph 7 mph 74.5% 0.00 in 274 W/m2
16:00 81.5 °F 72.8 °F 30.15 in Calm   7 mph 75% 0.00 in 251 W/m2
16:09 81.5 °F 72.4 °F 30.15 in SW 2.4 mph 13 mph 73.7% 0.00 in 223 W/m2
16:14 81.6 °F 72.8 °F 30.15 in SSW 2.1 mph 13 mph 74.7% 0.00 in 209 W/m2
16:19 81.7 °F 72.6 °F 30.15 in SW 2.5 mph 13 mph 74% 0.00 in 204 W/m2
16:24 81.6 °F 72.5 °F 30.15 in South 3.4 mph 13 mph 74% 0.00 in 230 W/m2
16:29 81.4 °F 72.6 °F 30.15 in South 2.6 mph 13 mph 74.7% 0.00 in 269 W/m2
16:34 81.1 °F 72.9 °F 30.15 in SSW 1.3 mph 13 mph 76% 0.00 in 207 W/m2
16:39 81.1 °F 72.9 °F 30.15 in SW 1.3 mph 7 mph 76.2% 0.00 in 199 W/m2
16:44 81.2 °F 72.8 °F 30.15 in SSW 0.8 mph 7 mph 75.7% 0.00 in 185 W/m2
16:49 81.3 °F 72.8 °F 30.15 in SSW 1.6 mph 7 mph 75.3% 0.00 in 167 W/m2
16:54 81.4 °F 72.6 °F 30.15 in SW 1.7 mph 7 mph 74.8% 0.00 in 149 W/m2
16:59 81.3 °F 72.6 °F 30.15 in SSW 1 mph 10 mph 74.9% 0.00 in 151 W/m2
17:04 81.3 °F 72.7 °F 30.14 in South 0.7 mph 10 mph 75.2% 0.00 in 158 W/m2
17:09 81.2 °F 72.5 °F 30.14 in SW 1.1 mph 6 mph 75% 0.00 in 183 W/m2
17:14 81.2 °F 72.5 °F 30.14 in SSW 1.8 mph 11 mph 75% 0.00 in 190 W/m2
17:19 81.4 °F 72.8 °F 30.13 in SW 0.6 mph 11 mph 75.2% 0.00 in 174 W/m2
17:24 81.7 °F 72.9 °F 30.14 in SSW 1.5 mph 11 mph 74.7% 0.00 in 116 W/m2
17:29 81.8 °F 72.7 °F 30.14 in South 1.9 mph 11 mph 73.8% 0.00 in 86 W/m2
17:34 81.7 °F 72.4 °F 30.14 in SW 1.6 mph 11 mph 73.5% 0.00 in 97 W/m2
17:39 81.4 °F 72.4 °F 30.13 in SSW 1.3 mph 9 mph 74.2% 0.00 in 74 W/m2
17:44 81.1 °F 72.3 °F 30.13 in SSE 0.9 mph 9 mph 74.6% 0.00 in 69 W/m2
17:49 80.8 °F 72.1 °F 30.13 in South 1.4 mph 9 mph 75% 0.00 in 42 W/m2
17:54 80.5 °F 71.8 °F 30.13 in South 1 mph 9 mph 75% 0.00 in 63 W/m2
17:59 80.2 °F 71.9 °F 30.13 in SSW 1.7 mph 9 mph 76% 0.00 in 72 W/m2
18:04 80 °F 71.9 °F 30.13 in SSW 1 mph 9 mph 76.4% 0.00 in 91 W/m2
18:09 80 °F 72.1 °F 30.13 in SSW 0.5 mph 6 mph 77% 0.00 in 118 W/m2
18:14 80 °F 72.2 °F 30.13 in SSW 0.1 mph 6 mph 77% 0.00 in 111 W/m2
18:19 80 °F 72.2 °F 30.13 in South 1.2 mph 7 mph 77% 0.00 in 123 W/m2
18:24 80 °F 72.2 °F 30.13 in SSW 0.7 mph 7 mph 77% 0.00 in 104 W/m2
18:29 80 °F 72.2 °F 30.13 in WSW 0.6 mph 7 mph 77% 0.00 in 93 W/m2
18:34 80 °F 72.1 °F 30.13 in SW 0.9 mph 7 mph 77% 0.00 in 65 W/m2
18:39 79.8 °F 72 °F 30.13 in South 1.1 mph 6 mph 77% 0.00 in 46 W/m2
18:44 79.7 °F 71.8 °F 30.13 in SSW 2 mph 8 mph 77% 0.00 in 46 W/m2
18:49 79.5 °F 72 °F 30.13 in SSW 0.4 mph 8 mph 77.9% 0.00 in 56 W/m2
18:54 79.3 °F 71.9 °F 30.13 in SSW 0.6 mph 8 mph 78% 0.00 in 54 W/m2
18:59 79.3 °F 71.8 °F 30.13 in SSW 1.3 mph 8 mph 78% 0.00 in 40 W/m2
19:04 79.1 °F 71.7 °F 30.13 in South 1.4 mph 8 mph 78% 0.00 in 30 W/m2
19:09 79.1 °F 71.8 °F 30.13 in Calm   7 mph 78.4% 0.00 in 21 W/m2
19:14 79 °F 71.9 °F 30.13 in SSW 0.1 mph 7 mph 79% 0.00 in 23 W/m2
19:19 78.9 °F 71.9 °F 30.13 in South 1.1 mph 7 mph 79% 0.00 in 21 W/m2
19:20 78.9 °F 71.8 °F 30.13 in South 2.9 mph 7 mph 79% 0.00 in 21 W/m2
19:30 78.6 °F 71.9 °F 30.13 in South 1 mph 7 mph 80% 0.00 in 20 W/m2
20:04 77.7 °F 71.4 °F 30.13 in SSW 0.7 mph 7 mph 80.9% 0.00 in 20 W/m2
20:09 77.6 °F 71.3 °F 30.12 in SSW 0.8 mph 5 mph 81% 0.00 in 5 W/m2
20:14 77.5 °F 71.3 °F 30.12 in SW 0.8 mph 5 mph 81.3% 0.00 in 5 W/m2
20:19 77.4 °F 71.4 °F 30.12 in SW 0.5 mph 5 mph 82% 0.00 in 0 W/m2
20:24 77.3 °F 71.3 °F 30.12 in SW 0.9 mph 5 mph 82% 0.00 in 0 W/m2
20:29 77.1 °F 71.2 °F 30.12 in SW 0.1 mph 5 mph 82% 0.00 in 0 W/m2
20:34 77.1 °F 71.2 °F 30.13 in SW 0.4 mph 5 mph 82% 0.00 in 0 W/m2
20:39 77 °F 71.1 °F 30.13 in Calm   4 mph 82.2% 0.00 in 0 W/m2
20:44 76.9 °F 71.3 °F 30.12 in SW 0.2 mph 4 mph 83% 0.00 in 0 W/m2
20:49 76.8 °F 71.2 °F 30.12 in SSW 0.7 mph 7 mph 83% 0.00 in 0 W/m2
20:54 76.6 °F 71.1 °F 30.12 in SSW 0.1 mph 7 mph 83% 0.00 in 0 W/m2
20:59 76.5 °F 71.1 °F 30.13 in SSW 0.1 mph 7 mph 83.3% 0.00 in 0 W/m2
21:04 76.4 °F 71.2 °F 30.13 in SSW 0.5 mph 7 mph 84% 0.00 in 0 W/m2
21:09 76.3 °F 71.1 °F 30.13 in SSW 0.5 mph 5 mph 84% 0.00 in 0 W/m2
21:14 76.2 °F 71 °F 30.13 in SW 0.7 mph 7 mph 84% 0.00 in 0 W/m2
21:19 76.1 °F 71 °F 30.13 in SW 0.6 mph 7 mph 84% 0.00 in 0 W/m2
21:24 76.1 °F 71 °F 30.13 in SSW 1 mph 7 mph 84.3% 0.00 in 0 W/m2
21:29 76 °F 71.2 °F 30.13 in SSW 0.3 mph 7 mph 85% 0.00 in 0 W/m2
21:34 76 °F 71.2 °F 30.13 in SSW 0.5 mph 7 mph 85% 0.00 in 0 W/m2
21:39 75.9 °F 71.1 °F 30.13 in SSW 0.1 mph 4 mph 85% 0.00 in 0 W/m2
21:44 75.9 °F 71.1 °F 30.13 in SSW 0.6 mph 4 mph 85% 0.00 in 0 W/m2
21:49 75.9 °F 71.1 °F 30.13 in Calm   4 mph 85% 0.00 in 0 W/m2
21:54 75.8 °F 71 °F 30.13 in SSW 1.6 mph 6 mph 85% 0.00 in 0 W/m2
21:59 75.8 °F 71 °F 30.13 in South 1 mph 6 mph 85% 0.00 in 0 W/m2
22:04 75.8 °F 71 °F 30.14 in SSW 1.1 mph 7 mph 85% 0.00 in 0 W/m2
22:09 75.7 °F 70.8 °F 30.13 in SW 0.5 mph 7 mph 85% 0.00 in 0 W/m2
22:14 75.6 °F 70.7 °F 30.13 in SW 1 mph 10 mph 85% 0.00 in 0 W/m2
22:19 75.4 °F 70.7 °F 30.13 in SW 0.9 mph 10 mph 85.2% 0.00 in 0 W/m2
22:24 75.3 °F 70.6 °F 30.13 in SW 0.2 mph 10 mph 85.4% 0.00 in 0 W/m2
22:29 75.2 °F 70.7 °F 30.14 in SW 0.3 mph 10 mph 86% 0.00 in 0 W/m2
22:34 75.1 °F 70.6 °F 30.14 in Calm   10 mph 86% 0.00 in 0 W/m2
22:39 75.1 °F 70.6 °F 30.14 in Calm     86% 0.00 in 0 W/m2
22:44 75 °F 70.5 °F 30.14 in SW 0.1 mph 2 mph 86% 0.00 in 0 W/m2
22:49 74.9 °F 70.7 °F 30.14 in SW 0.1 mph 2 mph 86.7% 0.00 in 0 W/m2
22:54 74.8 °F 70.7 °F 30.14 in Calm   2 mph 87% 0.00 in 0 W/m2
22:59 74.8 °F 70.7 °F 30.14 in SW 0.1 mph 3 mph 87% 0.00 in 0 W/m2
23:04 74.7 °F 70.6 °F 30.14 in SW 0.5 mph 4 mph 87% 0.00 in 0 W/m2
23:09 74.7 °F 70.5 °F 30.13 in Calm   4 mph 87% 0.00 in 0 W/m2
23:14 74.6 °F 70.5 °F 30.13 in SW 0.3 mph 5 mph 87% 0.00 in 0 W/m2
23:19 74.6 °F 70.5 °F 30.13 in SW 0.4 mph 5 mph 87% 0.00 in 0 W/m2
23:24 74.5 °F 70.4 °F 30.13 in SW 0.2 mph 5 mph 87% 0.00 in 0 W/m2
23:29 74.4 °F 70.3 °F 30.14 in Calm   5 mph 87% 0.00 in 0 W/m2
23:30 74.4 °F 70.3 °F 30.14 in Calm   5 mph 87% 0.00 in 0 W/m2
Hartford County Weather
Compliments of Weather Underground - 2 mb